TimeCST,TemperatureF,Dew PointF,Humidity,Sea Level PressureIn,VisibilityMPH,Wind Direction,Wind SpeedMPH,Gust SpeedMPH,PrecipitationIn,Events,Conditions,WindDirDegrees,DateUTC
12:13 AM,21.6,17.4,84,29.87,5.0,SE,25.3,29.9,N/A,,Overcast,140,2014-02-17 06:13:00
12:33 AM,21.7,17.4,83,29.86,4.0,SE,26.5,32.2,N/A,,Haze,140,2014-02-17 06:33:00
12:53 AM,21.7,18.0,85,29.84,3.0,SE,28.8,33.4,N/A,,Overcast,130,2014-02-17 06:53:00
1:13 AM,21.9,18.1,85,29.81,3.0,SE,29.9,36.8,N/A,,Overcast,130,2014-02-17 07:13:00
1:33 AM,22.1,18.5,86,29.80,2.5,SE,28.8,35.7,N/A,,Overcast,130,2014-02-17 07:33:00
1:53 AM,22.1,18.3,85,29.80,4.0,SE,24.2,32.2,N/A,,Overcast,130,2014-02-17 07:53:00
2:13 AM,22.1,18.5,86,29.79,2.5,SE,23.0,28.8,N/A,Snow,Light Snow,130,2014-02-17 08:13:00
2:33 AM,21.7,18.7,88,29.77,1.5,SE,24.2,31.1,N/A,Snow,Light Snow,130,2014-02-17 08:33:00
2:52 AM,21.6,18.9,89,29.78,2.0,SE,18.4,28.8,N/A,Snow,Light Snow,140,2014-02-17 08:52:00
3:13 AM,21.7,18.5,87,29.79,4.0,SE,12.7,21.9,N/A,Snow,Light Snow,140,2014-02-17 09:13:00
3:33 AM,21.6,19.2,91,29.78,1.5,SE,15.0,23.0,N/A,Snow,Light Snow,140,2014-02-17 09:33:00
3:52 AM,21.6,19.0,90,29.77,2.0,SSE,15.0,21.9,N/A,Snow,Light Snow,150,2014-02-17 09:52:00
4:13 AM,21.2,19.2,92,29.76,1.2,SE,16.1,19.6,N/A,Snow,Light Snow,140,2014-02-17 10:13:00
4:33 AM,21.2,19.2,92,29.75,1.0,SE,17.3,21.9,N/A,Snow,Snow,140,2014-02-17 10:33:00
4:52 AM,21.2,19.2,92,29.74,1.0,SE,18.4,-,N/A,Snow,Snow,140,2014-02-17 10:52:00
5:13 AM,20.8,19.0,93,29.72,1.0,SE,16.1,21.9,N/A,Snow,Snow,140,2014-02-17 11:13:00
5:33 AM,20.8,18.9,92,29.72,1.0,SE,15.0,19.6,N/A,Snow,Snow,140,2014-02-17 11:33:00
5:53 AM,20.8,19.0,93,29.71,0.8,SE,13.8,19.6,N/A,Snow,Snow,140,2014-02-17 11:53:00
6:13 AM,20.8,19.2,93,29.70,0.5,SE,13.8,19.6,N/A,Snow,Heavy Snow,140,2014-02-17 12:13:00
6:33 AM,20.8,19.2,93,29.70,0.8,SE,13.8,-,N/A,Snow,Snow,140,2014-02-17 12:33:00
6:53 AM,21.2,19.4,93,29.69,1.0,SE,12.7,21.9,N/A,Snow,Snow,140,2014-02-17 12:53:00
7:13 AM,21.2,19.4,93,29.68,1.2,SE,11.5,18.4,N/A,Snow,Light Snow,140,2014-02-17 13:13:00
7:33 AM,21.2,19.4,93,29.67,0.8,SE,11.5,-,N/A,Snow,Light Snow,140,2014-02-17 13:33:00
7:53 AM,21.6,19.4,91,29.68,0.8,SE,11.5,17.3,N/A,Snow,Light Snow,140,2014-02-17 13:53:00
8:13 AM,21.7,19.4,91,29.67,1.0,SE,8.1,-,N/A,Snow,Light Snow,140,2014-02-17 14:13:00
8:33 AM,21.7,19.6,91,29.66,1.2,SE,10.4,16.1,N/A,Snow,Light Snow,140,2014-02-17 14:33:00
8:53 AM,22.1,19.9,91,29.66,0.8,SSE,6.9,-,N/A,Snow,Light Snow,150,2014-02-17 14:53:00
9:13 AM,22.1,19.9,91,29.66,1.5,SSE,12.7,-,N/A,Snow,Light Snow,150,2014-02-17 15:13:00
9:33 AM,23.0,20.1,89,29.66,5.0,SE,9.2,-,N/A,,Overcast,140,2014-02-17 15:33:00
9:53 AM,23.2,20.3,89,29.65,5.0,South,4.6,-,N/A,,Overcast,170,2014-02-17 15:53:00
10:13 AM,23.7,20.8,89,29.68,5.0,SW,4.6,-,N/A,,Overcast,220,2014-02-17 16:13:00
10:33 AM,24.6,21.7,89,29.68,5.0,WSW,6.9,-,N/A,,Overcast,240,2014-02-17 16:33:00
10:53 AM,26.2,23.0,88,29.69,4.0,West,12.7,-,N/A,,Overcast,270,2014-02-17 16:53:00
11:13 AM,26.6,23.4,88,29.68,4.0,WNW,9.2,17.3,N/A,,Overcast,300,2014-02-17 17:13:00
11:33 AM,27.3,23.5,86,29.68,5.0,WNW,10.4,-,N/A,,Overcast,300,2014-02-17 17:33:00
11:53 AM,27.3,23.2,84,29.68,5.0,WNW,10.4,-,N/A,,Overcast,290,2014-02-17 17:53:00
12:13 PM,28.4,23.9,83,29.68,5.0,West,11.5,-,N/A,,Mostly Cloudy,280,2014-02-17 18:13:00
12:33 PM,29.1,23.9,81,29.68,5.0,West,15.0,-,N/A,,Haze,280,2014-02-17 18:33:00
12:53 PM,29.3,24.8,83,29.67,5.0,West,12.7,-,N/A,,Overcast,270,2014-02-17 18:53:00
1:13 PM,29.3,25.2,85,29.67,7.0,West,15.0,-,N/A,,Mostly Cloudy,270,2014-02-17 19:13:00
1:33 PM,29.8,24.6,81,29.68,10.0,West,16.1,21.9,N/A,,Mostly Cloudy,280,2014-02-17 19:33:00
1:53 PM,29.8,25.0,82,29.67,10.0,West,18.4,23.0,N/A,,Overcast,280,2014-02-17 19:53:00
2:13 PM,30.2,25.2,82,29.68,7.0,West,18.4,23.0,N/A,,Mostly Cloudy,280,2014-02-17 20:13:00
2:33 PM,31.1,25.5,80,29.68,10.0,WNW,13.8,-,N/A,,Overcast,290,2014-02-17 20:33:00
2:53 PM,32.0,25.7,78,29.69,2.5,WNW,16.1,-,N/A,,Haze,300,2014-02-17 20:53:00
3:13 PM,32.0,25.7,78,29.70,4.0,WNW,11.5,-,N/A,,Haze,290,2014-02-17 21:13:00
3:33 PM,32.2,25.7,77,29.70,7.0,WNW,10.4,-,N/A,,Clear,300,2014-02-17 21:33:00
3:53 PM,32.2,25.7,77,29.70,10.0,WNW,10.4,-,N/A,,Clear,300,2014-02-17 21:53:00
4:13 PM,32.2,26.1,78,29.72,10.0,WNW,10.4,-,N/A,,Clear,290,2014-02-17 22:13:00
4:33 PM,32.2,26.1,78,29.72,10.0,WNW,11.5,-,N/A,,Clear,290,2014-02-17 22:33:00
4:53 PM,30.9,25.5,80,29.73,10.0,West,12.7,-,0.01,,Clear,270,2014-02-17 22:53:00
5:13 PM,31.3,25.9,80,29.73,10.0,WNW,9.2,-,N/A,,Clear,290,2014-02-17 23:13:00
5:33 PM,30.4,25.3,82,29.74,10.0,West,8.1,-,N/A,,Clear,280,2014-02-17 23:33:00
5:53 PM,26.8,23.0,86,29.75,10.0,West,8.1,-,N/A,,Clear,280,2014-02-17 23:53:00
6:13 PM,26.2,23.2,88,29.75,10.0,West,6.9,-,N/A,,Clear,270,2014-02-18 00:13:00
6:33 PM,25.5,23.4,92,29.75,10.0,West,6.9,-,N/A,,Clear,270,2014-02-18 00:33:00
6:53 PM,24.4,22.1,91,29.75,10.0,West,6.9,-,N/A,,Clear,270,2014-02-18 00:53:00
7:12 PM,21.0,19.4,93,29.75,10.0,West,5.8,-,N/A,,Clear,270,2014-02-18 01:12:00
7:33 PM,21.2,20.5,97,29.75,10.0,WSW,4.6,-,N/A,,Clear,250,2014-02-18 01:33:00
7:53 PM,17.2,15.8,94,29.75,7.0,SW,3.5,-,N/A,,Clear,230,2014-02-18 01:53:00
8:13 PM,17.1,15.8,95,29.75,7.0,SW,3.5,-,N/A,,Clear,220,2014-02-18 02:13:00
8:33 PM,16.5,15.3,95,29.75,7.0,Calm,Calm,-,N/A,,Clear,0,2014-02-18 02:33:00
8:53 PM,14.2,12.4,93,29.75,7.0,Calm,Calm,-,N/A,,Clear,0,2014-02-18 02:53:00
9:13 PM,12.6,10.6,92,29.75,10.0,South,3.5,-,N/A,,Clear,190,2014-02-18 03:13:00
9:33 PM,16.9,15.6,95,29.75,7.0,South,4.6,-,N/A,,Clear,170,2014-02-18 03:33:00
9:53 PM,18.0,16.7,95,29.75,7.0,South,3.5,-,N/A,,Clear,180,2014-02-18 03:53:00
10:13 PM,18.9,17.4,94,29.74,10.0,Calm,Calm,-,N/A,,Clear,0,2014-02-18 04:13:00
10:33 PM,20.3,19.2,96,29.73,10.0,South,3.5,-,N/A,,Clear,180,2014-02-18 04:33:00
10:53 PM,21.4,20.3,96,29.74,10.0,South,4.6,-,N/A,,Clear,190,2014-02-18 04:53:00
11:13 PM,22.6,21.6,96,29.72,10.0,SSE,4.6,-,N/A,,Clear,160,2014-02-18 05:13:00
11:33 PM,23.4,22.3,96,29.73,10.0,Calm,Calm,-,N/A,,Mostly Cloudy,0,2014-02-18 05:33:00
11:53 PM,22.8,21.7,96,29.72,10.0,South,3.5,-,N/A,,Mostly Cloudy,170,2014-02-18 05:53:00